Terminal Aerodrome Forecast
Issued by NWS Cleveland, OH

Home | Current Version | Previous Version | Graphics & Text | Print | Product List | Glossary On
Versions: 1 2 3 4 5 6 7 8 9 10 11 12 13 14 15 16 17 18 19 20 21 22 23 24 25 26
690
FTUS41 KCLE 221130
TAFCLE
TAF
KCLE 221130Z 2212/2318 26010G20KT P6SM SCT030
     FM221400 26011G20KT P6SM FEW050 SCT250
     FM222200 23008KT P6SM FEW250
     FM230900 17006KT P6SM SCT120=

USA.gov is the U.S. government's official web portal to all federal, state and local government web resources and services.